20:40
Airports
Links
Donate
Help keep this website running!
PayPal
Bitcoin
METAR
DRRM 221800Z 28006KT 9999 FEW030CB 30/23 Q1013
Current Weather Conditions at DRRM
VFR 18:00:00 22-09-17
Altimeter:29.91 hg
Temp:30.0°c 86°f
Dew point:23.0°c 73°f
Wind:6 knots, 6.9 mph, 3 m/s, from 280°
Visibility:6.21 statute miles
3000(FEW) A few
Past METAR reports
VFR 17:00:00 22-09-17
Altimeter:29.88 hg
Temp:31.0°c 88°f
Dew point:23.0°c 73°f
Wind:12 knots, 13.8 mph, 6 m/s, from 280°
Visibility:6.21 statute miles
1500(SCT) Scattered
DRRM 221700Z 28012KT 9999 SCT015 31/23 Q1012
VFR 16:00:00 22-09-17
Altimeter:29.88 hg
Temp:32.0°c 90°f
Dew point:23.0°c 73°f
Wind:12 knots, 13.8 mph, 6 m/s, from 280°
Visibility:6.21 statute miles
1500(SCT) Scattered
DRRM 221600Z 28012KT 9999 SCT015 32/23 Q1012
VFR 15:00:00 22-09-17
Altimeter:29.88 hg
Temp:34.0°c 93°f
Dew point:24.0°c 75°f
Wind:10 knots, 11.5 mph, 5 m/s, from 300°
Visibility:6.21 statute miles
1500(SCT) Scattered
DRRM 221500Z 30010KT 9999 SCT015 34/24 Q1012
TAF
No TAF for DRRM
Forecast at DRRM
No Forecast Reports for DRRM